Fort Chipewyan, Canada
Current Conditions -  °F | °C
As of 1:00 AM on Tuesday 21 Oct 2014 (Local Time) from CYPY Reporting Station
Overcast Overcast  
Wind Chill: 40°   Ceiling: 15000
Heat Index: 43°   Visibility: 9mi
Dew Point: 41°   Wind: 5mph
Humidity: 93%   Direction: 80°E
Pressure: 29.42"   Gusts: NA
Location:  58.71°N, 111.15°W
Report Text: CYPY 210700Z AUTO 08004KT 9SM OVC150 06/05 A2942 RMK SLP971
Loading
Personal Weather Stations






























Interactive Weather Map
Tropical Storm Tracking
New forecast layout! Learn more

10-Day Weather Forecast

Advertisements
Track Severe Weather on mobile